Motte Rimrock Reserve, California Weather observations

Data are for 10 minute period ending at time listed.
 Day   Time   Solar   Ave.   Ave.  Ave.  Vector  Max.   Baro.   Total    
  of    of     Rad.   Air    Rel.  Wind   Wind   Wind  Press.  Precip.   
Year   Day            Temp.  Hum.  Speed  Dir.   Gust                    
2017   (PST)  Kw/m2    F      %     mph   deg.    mph    mb.     in.     
-------------------------------------------------------------------------
  52    2:50   0.00   53.6    88    1.1    72     2.1   957.0    0.00 
  52    3:00   0.00   53.6    88    2.9    98     3.9   956.9    0.00 
  52    3:10   0.00   53.3    89    3.7    95     4.2   956.8    0.00 
  52    3:20   0.00   53.0    90    2.2    80     3.4   956.8    0.00 
  52    3:30   0.00   52.8    91    1.7    52     2.3   956.6    0.00 
  52    3:40   0.00   52.9    90    1.2    73     2.0   956.6    0.00 
  52    3:50   0.00   52.8    90    2.7    87     3.2   956.5    0.00 
  52    4:00   0.00   52.6    91    1.7    76     2.9   956.7    0.00 
  52    4:10   0.00   52.7    91    0.9    74     1.5   956.6    0.00 
  52    4:20   0.00   52.9    90    1.4    84     2.7   956.6    0.00 
  52    4:30   0.00   52.9    90    1.9    92     3.1   956.5    0.00 
  52    4:40   0.00   52.9    90    0.7    87     1.8   956.6    0.00 
  52    4:50   0.00   52.8    90    2.1   100     2.6   956.5    0.00 
  52    5:00   0.00   52.6    91    2.0   145     2.9   956.5    0.00 
  52    5:10   0.00   52.4    91    2.2   169     3.3   956.6    0.00 
  52    5:20   0.00   52.1    92    1.4   179     2.3   956.7    0.00 
  52    5:30   0.00   52.2    92    1.9   169     2.4   956.6    0.00 
  52    5:40   0.00   52.1    92    2.3   233     2.7   956.7    0.00 
  52    5:50   0.00   52.0    93    1.4   231     2.3   956.7    0.00 
  52    6:00   0.00   52.2    92    1.6   168     2.6   956.6    0.00 
  52    6:10   0.00   52.2    92    0.6   154     1.8   956.7    0.00 
  52    6:20   0.00   52.4    92    0.0     0     0.0   956.7    0.00 
  52    6:30   0.00   52.2    92    0.1   157     0.6   956.6    0.00 
  52    6:40   0.02   52.5    92    1.3   191     1.6   956.7    0.00 
  52    6:50   0.04   52.6    92    1.7   186     2.3   956.6    0.00 
  52    7:00   0.07   53.4    90    1.8   216     2.3   956.8    0.00 
  52    7:10   0.10   54.6    88    2.1   208     3.1   956.9    0.00 
  52    7:20   0.08   53.8    89    2.0   189     2.9   957.0    0.00 
  52    7:30   0.10   54.0    89    1.9   167     3.1   957.0    0.00 
  52    7:40   0.18   54.7    88    1.8   172     3.5   957.2    0.00 
  52    7:50   0.13   56.0    84    1.1   150     2.1   957.2    0.00 
  52    8:00   0.22   55.8    86    2.4   126     3.8   957.4    0.00 
  52    8:10   0.19   55.8    87    2.6   144     3.9   957.5    0.00 
  52    8:20   0.15   55.5    87    3.0   177     4.1   957.6    0.00 
  52    8:30   0.18   55.5    88    3.9   180     5.8   957.7    0.00 
  52    8:40   0.25   56.0    87    4.4   186     5.7   957.8    0.00 
  52    8:50   0.26   56.6    84    3.3   187     5.1   957.8    0.00 
  52    9:00   0.26   56.8    84    2.4   193     3.7   958.1    0.00 
  52    9:10   0.17   57.1    83    2.4   187     3.7   958.4    0.00 
  52    9:20   0.14   57.2    83    2.3   238     4.4   958.5    0.00 
  52    9:30   0.18   57.4    82    2.5   268     6.7   958.6    0.00 
  52    9:40   0.18   57.6    82    5.3   299     7.3   958.8    0.00 
  52    9:50   0.29   58.0    81    5.0   328     8.0   958.9    0.00 
  52   10:00   0.26   59.2    80    3.0    22     5.8   958.7    0.00 
  52   10:10   0.17   58.6    82    4.5    42     7.9   958.6    0.00 
  52   10:20   0.18   57.9    84    9.0   107    11.8   957.9    0.00 
  52   10:30   0.19   57.9    82    6.3   110    10.7   958.2    0.00 
  52   10:40   0.21   58.5    81    3.2   134     5.2   958.5    0.00 
  52   10:50   0.23   58.7    80    2.9   150     5.8   958.5    0.00 
  52   11:00   0.26   59.1    80    2.5   105     5.7   958.5    0.00 
  52   11:10   0.22   59.5    78    1.5   342     3.4   958.6    0.00 
  52   11:20   0.34   60.5    76    1.5    48     4.1   958.3    0.00 
  52   11:30   0.38   60.8    74    1.7    79     4.6   958.0    0.00 
  52   11:40   0.32   60.1    77    2.7    78     5.3   957.9    0.00 
  52   11:50   0.36   60.8    74    2.0    44     4.6   957.9    0.00 
  52   12:00   0.49   61.0    75    2.7    53     4.6   957.7    0.00 
  52   12:10   0.53   62.6    71    2.7    42     6.4   957.6    0.00 
  52   12:20   0.37   61.7    72    2.8    25     5.8   957.3    0.00 
  52   12:30   0.32   61.0    72    3.9   343     9.1   957.2    0.00 
  52   12:40   0.46   61.9    70    2.0   358     5.0   957.1    0.00 
  52   12:50   0.30   62.0    69    2.5   304     5.9   957.1    0.00 
  52   13:00   0.25   62.0    68    0.8   300     4.1   956.7    0.00 
  52   13:10   0.20   62.7    66    0.6   220     2.8   956.5    0.00 
  52   13:20   0.34   62.5    67    1.3   211     3.6   956.5    0.00 
  52   13:30   0.37   63.1    67    3.2   297     6.8   956.3    0.00 
  52   13:40   0.30   62.6    69    4.4   309     7.8   956.3    0.00 
  52   13:50   0.24   62.2    68    4.3   313     7.5   956.3    0.00 
  52   14:00   0.31   62.3    69    6.8   316     9.3   956.2    0.00 
  52   14:10   0.35   62.4    68    6.2   336     9.4   956.0    0.00 
  52   14:20   0.24   62.1    68    6.2   325     9.5   956.0    0.00 
  52   14:30   0.25   61.9    67    6.5   317     8.4   955.8    0.00 
  52   14:40   0.20   62.1    66    5.4   327     7.9   955.8    0.00 
  52   14:50   0.26   62.2    64    4.2   323     5.7   955.7    0.00 
  52   15:00   0.31   62.5    64    4.8   327     7.3   955.7    0.00 
  52   15:10   0.33   62.7    62    4.2   326     6.9   955.6    0.00 
  52   15:20   0.29   63.1    62    4.8   321     7.2   955.6    0.00 
  52   15:30   0.30   63.1    61    6.2   309     8.4   955.5    0.00 
  52   15:40   0.25   62.5    60    7.0   312     9.4   955.5    0.00 
  52   15:50   0.17   62.2    60    6.8   314     9.3   955.5    0.00 
  52   16:00   0.18   62.3    60    5.6   319     7.7   955.3    0.00 
  52   16:10   0.14   62.1    60    6.0   308     8.0   955.3    0.00 
  52   16:20   0.14   61.9    59    7.1   307     9.1   955.2    0.00 
  52   16:30   0.10   61.4    59    9.1   308    10.7   955.3    0.00 
  52   16:40   0.09   61.1    62    7.8   304    10.1   955.2    0.00 
  52   16:50   0.08   60.9    64    8.4   309    10.2   954.9    0.00 
  52   17:00   0.06   60.4    64    8.6   307    10.4   954.8    0.00 
  52   17:10   0.03   59.9    66    8.5   302    10.0   954.9    0.00 
  52   17:20   0.02   59.7    66    8.3   302    10.7   954.8    0.00 
  52   17:30   0.01   59.6    66    8.5   301    10.4   954.8    0.00 
  52   17:40   0.00   59.1    66    7.8   303    10.2   954.6    0.00 
  52   17:50   0.00   58.7    67    9.3   303    11.5   954.7    0.00 
  52   18:00   0.00   58.3    68    9.8   303    12.1   954.7    0.00 
  52   18:10   0.00   58.0    69    9.7   304    12.3   954.7    0.00 
  52   18:20   0.00   57.7    68    9.5   306    11.8   954.6    0.00 
  52   18:30   0.00   57.8    67   10.3   306    12.5   954.5    0.00 
  52   18:40   0.00   57.7    67    9.4   305    11.4   954.4    0.00 
  52   18:50   0.00   57.4    68   10.6   307    12.5   954.5    0.00 
  52   19:00   0.00   57.7    66   10.9   304    12.9   954.5    0.00 
  52   19:10   0.00   57.6    67   11.5   306    13.4   954.6    0.00 
  52   19:20   0.00   57.4    67   11.9   305    15.1   954.6    0.00 
  52   19:30   0.00   57.2    68   11.6   301    14.4   954.6    0.00 
  52   19:40   0.00   56.8    70   11.3   300    13.7   954.6    0.00 
  52   19:50   0.00   56.6    70   11.6   299    13.9   954.5    0.00 
  52   20:00   0.00   56.4    69   11.0   300    12.9   954.4    0.00 
  52   20:10   0.00   56.2    70   12.3   300    14.9   954.4    0.00 
  52   20:20   0.00   55.9    73   12.3   297    15.0   954.4    0.00 
  52   20:30   0.00   55.5    77   11.7   294    14.1   954.5    0.00 
  52   20:40   0.00   55.4    77   11.4   299    13.7   954.3    0.00 
  52   20:50   0.00   55.4    76   11.0   301    13.2   954.3    0.00 
  52   21:00   0.00   55.2    76   10.9   301    13.4   954.3    0.00 
  52   21:10   0.00   55.0    76   11.6   304    14.0   954.1    0.00 
  52   21:20   0.00   54.5    78   12.4   304    15.7   954.2    0.00 
  52   21:30   0.00   54.2    81   11.0   304    14.1   954.2    0.00 
  52   21:40   0.00   53.6    83   11.2   307    12.8   954.0    0.00 
  52   21:50   0.00   53.5    82   11.1   306    12.7   954.0    0.00 
  52   22:00   0.00   53.5    82   10.5   306    11.9   954.0    0.00 
  52   22:10   0.00   53.6    81    9.8   302    11.0   954.0    0.00 
  52   22:20   0.00   54.0    74   10.8   301    13.5   953.8    0.00 
  52   22:30   0.00   54.3    71   10.6   302    14.2   953.8    0.00 
  52   22:40   0.00   54.3    71   11.5   305    14.8   953.8    0.00 
  52   22:50   0.00   54.1    71   11.7   304    14.8   953.8    0.00 
  52   23:00   0.00   53.8    73   12.2   305    14.7   953.8    0.00 
  52   23:10   0.00   53.6    74   12.0   307    14.8   953.8    0.00 
  52   23:20   0.00   53.5    74   11.7   306    14.2   953.7    0.00 
  52   23:30   0.00   53.5    73   11.0   304    13.2   953.7    0.00 
  52   23:40   0.00   53.5    73    9.7   306    12.3   953.7    0.00 
  52   23:50   0.00   52.6    76    8.7   310     9.8   953.6    0.00 
  53    0:00   0.00   52.2    77    7.9   318     9.4   953.6    0.00 
  53    0:10   0.00   53.2    73    5.7   320     7.5   953.5    0.00 
  53    0:20   0.00   52.9    74    4.2   338     5.8   953.3    0.00 
  53    0:30   0.00   52.5    76    3.7   343     4.9   953.3    0.00 
  53    0:40   0.00   52.9    75    4.4    17     5.5   953.2    0.00 
  53    0:50   0.00   52.8    77    5.9    25     6.6   953.1    0.00 
  53    1:00   0.00   52.6    77    4.6    20     5.7   953.1    0.00 
  53    1:10   0.00   52.5    77    4.8    24     5.6   953.0    0.00 
  53    1:20   0.00   52.4    77    5.1    29     5.6   952.9    0.00 
  53    1:30   0.00   52.3    77    5.1    32     5.9   952.8    0.00 
  53    1:40   0.00   52.4    76    5.6    26     6.2   952.6    0.00 
  53    1:50   0.00   52.4    76    4.9    29     5.8   952.5    0.00 
  53    2:00   0.00   52.2    77    5.0    31     5.6   952.3    0.00 
  53    2:10   0.00   52.2    77    4.2    19     5.2   952.4    0.00 
  53    2:20   0.00   52.2    77    4.6    26     5.3   952.0    0.00 
  53    2:30   0.00   52.1    78    3.9    32     4.4   951.9    0.00 
  53    2:40   0.00   51.8    79    3.8    48     4.7   951.7    0.00 

Return to Motte Rimrock Reserve graphs page.


Western Regional Climate Center,wrcc@dri.edu